Ocean, New Jersey
Current Conditions -  °F | °C
As of 1:55 PM on Monday 20 Oct 2014 (Local Time) from KBLM Reporting Station
Clear Clear  
Wind Chill: 61°   Ceiling: Unl
Heat Index: 61°   Visibility: 10mi
Dew Point: 36°   Wind: 15mph
Humidity: 39%   Direction: 220°SW
Pressure: 30.03"   Gusts: 22mph
Location:  40.2492°N, 74.0521°W
Report Text: KBLM 201755Z AUTO 22013G19KT 10SM CLR 16/02 A3003 RMK AO1 10160 20030 57030
Loading
Personal Weather Stations






























Interactive Weather Map
Tropical Storm Tracking
New forecast layout! Learn more

10-Day Weather Forecast

Advertisements
Track Severe Weather on mobile